createdAt,value
2023-05-19T00:01:00.689Z,89.85
2023-05-19T00:03:29.241Z,89.64
2023-05-19T00:05:59.201Z,89.39
2023-05-19T00:08:31.846Z,89.77
2023-05-19T00:11:00.218Z,89.90
2023-05-19T00:13:28.496Z,90.55
2023-05-19T00:15:57.007Z,90.28
2023-05-19T00:18:25.048Z,91.56
2023-05-19T00:20:52.969Z,91.59
2023-05-19T00:23:20.925Z,90.37
2023-05-19T00:25:49.199Z,91.02
2023-05-19T00:28:17.064Z,90.75
2023-05-19T00:30:45.109Z,92.01
2023-05-19T00:33:13.227Z,91.82
2023-05-19T00:35:41.262Z,94.21
2023-05-19T00:38:09.134Z,93.83
2023-05-19T00:40:37.400Z,93.40
2023-05-19T00:43:08.634Z,94.06
2023-05-19T00:45:36.944Z,94.36
2023-05-19T00:48:06.316Z,94.92
2023-05-19T00:50:34.824Z,95.14
2023-05-19T00:53:03.124Z,95.43
2023-05-19T00:55:32.087Z,96.37
2023-05-19T00:58:01.551Z,96.81
2023-05-19T01:00:31.161Z,96.87
2023-05-19T01:02:59.600Z,96.78
2023-05-19T01:05:27.802Z,95.47
2023-05-19T01:07:56.679Z,96.55
2023-05-19T01:10:24.663Z,97.62
2023-05-19T01:12:52.582Z,97.77
2023-05-19T01:15:20.824Z,97.15
2023-05-19T01:17:56.130Z,97.98
2023-05-19T01:20:39.428Z,98.96
2023-05-19T01:23:41.209Z,98.88
2023-05-19T01:26:21.861Z,98.64
2023-05-19T01:29:15.713Z,98.50
2023-05-19T01:31:48.141Z,98.95
2023-05-19T01:34:17.407Z,98.91
2023-05-19T01:36:49.981Z,97.43
2023-05-19T01:39:19.978Z,98.22
2023-05-19T01:41:49.337Z,99.55
2023-05-19T01:44:17.761Z,99.46
2023-05-19T01:46:46.193Z,99.38
2023-05-19T01:49:14.328Z,99.98
2023-05-19T01:51:42.360Z,99.83
2023-05-19T01:54:10.288Z,100.00
2023-05-19T01:56:50.370Z,100.00
2023-05-19T01:59:42.552Z,100.00
2023-05-19T02:02:25.465Z,100.00
2023-05-19T02:05:05.803Z,100.00
2023-05-19T02:07:50.722Z,100.00
2023-05-19T02:10:24.440Z,100.00
2023-05-19T02:12:56.552Z,100.00
2023-05-19T02:15:34.555Z,100.00
2023-05-19T02:18:04.778Z,100.00
2023-05-19T02:20:33.345Z,100.00
2023-05-19T02:23:01.593Z,100.00
2023-05-19T02:25:29.688Z,100.00
2023-05-19T02:27:58.905Z,100.00
2023-05-19T02:30:32.009Z,100.00
2023-05-19T02:33:01.469Z,100.00
2023-05-19T02:35:29.485Z,100.00
2023-05-19T02:37:57.823Z,100.00
2023-05-19T02:40:26.341Z,100.00
2023-05-19T02:42:54.257Z,99.96
2023-05-19T02:45:22.230Z,99.98
2023-05-19T02:47:50.422Z,100.00
2023-05-19T02:50:18.520Z,100.00
2023-05-19T02:52:46.496Z,100.00
2023-05-19T02:55:17.305Z,100.00
2023-05-19T02:57:45.647Z,100.00
2023-05-19T03:00:14.071Z,100.00
2023-05-19T03:02:44.235Z,100.00
2023-05-19T03:05:12.327Z,100.00
2023-05-19T03:07:40.215Z,100.00
2023-05-19T03:10:09.029Z,100.00
2023-05-19T03:12:37.567Z,100.00
2023-05-19T03:15:07.052Z,100.00
2023-05-19T03:17:36.554Z,100.00
2023-05-19T03:20:05.886Z,100.00
2023-05-19T03:22:33.813Z,100.00
2023-05-19T03:25:01.896Z,100.00
2023-05-19T03:27:30.247Z,100.00
2023-05-19T03:29:58.300Z,100.00
2023-05-19T03:32:26.848Z,100.00
2023-05-19T03:34:55.119Z,100.00
2023-05-19T03:37:23.328Z,100.00
2023-05-19T03:39:51.469Z,100.00
2023-05-19T03:42:19.371Z,100.00
2023-05-19T03:44:47.315Z,100.00
2023-05-19T03:47:16.080Z,100.00
2023-05-19T03:49:59.309Z,100.00
2023-05-19T03:52:53.743Z,100.00
2023-05-19T03:55:33.926Z,100.00
2023-05-19T03:58:02.672Z,100.00
2023-05-19T04:00:31.133Z,100.00
2023-05-19T04:03:00.747Z,100.00
2023-05-19T04:05:29.225Z,100.00
2023-05-19T04:07:57.218Z,100.00
2023-05-19T04:10:25.461Z,100.00
2023-05-19T04:12:55.828Z,100.00
2023-05-19T04:15:23.802Z,100.00
2023-05-19T04:17:51.881Z,100.00
2023-05-19T04:20:19.969Z,100.00
2023-05-19T04:22:47.900Z,100.00
2023-05-19T04:25:15.972Z,100.00
2023-05-19T04:27:44.004Z,100.00
2023-05-19T04:30:12.360Z,100.00
2023-05-19T04:32:41.564Z,100.00
2023-05-19T04:35:09.693Z,100.00
2023-05-19T04:37:39.267Z,100.00
2023-05-19T04:40:11.374Z,99.95
2023-05-19T04:42:45.954Z,99.74
2023-05-19T04:45:14.994Z,99.54
2023-05-19T04:47:47.069Z,98.62
2023-05-19T04:50:16.463Z,98.82
2023-05-19T04:52:47.349Z,98.18
2023-05-19T04:55:16.043Z,97.13
2023-05-19T04:57:44.283Z,97.29
2023-05-19T05:00:14.500Z,96.83
2023-05-19T05:03:05.279Z,96.18
2023-05-19T05:05:35.174Z,95.00
2023-05-19T05:08:03.340Z,93.59
2023-05-19T05:10:35.594Z,94.13
2023-05-19T05:13:03.724Z,94.08
2023-05-19T05:15:32.019Z,94.13
2023-05-19T05:18:02.185Z,91.75
2023-05-19T05:20:31.889Z,92.03
2023-05-19T05:23:01.215Z,91.69
2023-05-19T05:25:29.642Z,89.74
2023-05-19T05:27:59.150Z,90.41
2023-05-19T05:30:27.309Z,89.77
2023-05-19T05:32:56.023Z,89.89
2023-05-19T05:35:34.184Z,88.93
2023-05-19T05:38:03.086Z,88.80
2023-05-19T05:40:31.260Z,89.03
2023-05-19T05:42:59.284Z,87.66
2023-05-19T05:45:29.252Z,86.88
2023-05-19T05:47:58.996Z,87.04
2023-05-19T05:50:27.619Z,86.70
2023-05-19T05:52:57.926Z,86.58
2023-05-19T05:55:27.935Z,86.25
2023-05-19T05:57:57.209Z,83.63
2023-05-19T06:00:28.108Z,83.57
2023-05-19T06:02:57.428Z,80.62
2023-05-19T06:05:27.303Z,83.00
2023-05-19T06:07:55.401Z,80.43
2023-05-19T06:10:26.416Z,78.77
2023-05-19T06:12:55.437Z,78.52
2023-05-19T06:15:23.786Z,79.79
2023-05-19T06:17:59.475Z,77.24
2023-05-19T06:20:27.856Z,78.27
2023-05-19T06:22:57.107Z,79.11
2023-05-19T06:25:26.414Z,78.22
2023-05-19T06:27:54.993Z,78.11
2023-05-19T06:30:23.495Z,78.23
2023-05-19T06:33:03.239Z,77.33
2023-05-19T06:35:31.764Z,76.71
2023-05-19T06:37:59.769Z,76.89
2023-05-19T06:40:27.825Z,77.01
2023-05-19T06:42:55.973Z,75.32
2023-05-19T06:45:34.085Z,74.30
2023-05-19T06:48:03.519Z,72.75
2023-05-19T06:50:32.601Z,72.94
2023-05-19T06:53:01.037Z,74.32
2023-05-19T06:55:29.081Z,73.80
2023-05-19T06:57:56.974Z,73.75
2023-05-19T07:00:26.598Z,73.91
2023-05-19T07:02:54.842Z,73.48
2023-05-19T07:05:22.816Z,71.83
2023-05-19T07:07:54.000Z,71.08
2023-05-19T07:10:24.897Z,70.63
2023-05-19T07:12:53.230Z,70.24
2023-05-19T07:15:23.284Z,69.88
2023-05-19T07:17:51.401Z,71.12
2023-05-19T07:20:19.517Z,70.74
2023-05-19T07:22:48.219Z,71.33
2023-05-19T07:25:16.295Z,71.45
2023-05-19T07:27:47.605Z,70.72
2023-05-19T07:30:15.565Z,70.92
2023-05-19T07:32:43.819Z,70.80
2023-05-19T07:35:11.920Z,69.75
2023-05-19T07:37:39.904Z,69.13
2023-05-19T07:40:08.592Z,67.63
2023-05-19T07:42:36.392Z,67.98
2023-05-19T07:45:04.759Z,68.61
2023-05-19T07:47:32.730Z,67.23
2023-05-19T07:50:00.709Z,66.85
2023-05-19T07:52:28.779Z,67.50
2023-05-19T07:54:56.822Z,66.88
2023-05-19T07:57:24.911Z,66.98
2023-05-19T07:59:52.760Z,67.54
2023-05-19T08:02:20.956Z,65.99
2023-05-19T08:04:49.632Z,66.67
2023-05-19T08:07:17.648Z,66.64
2023-05-19T08:09:45.640Z,65.21
2023-05-19T08:12:13.566Z,64.40
2023-05-19T08:14:41.538Z,65.15
2023-05-19T08:17:09.498Z,64.06
2023-05-19T08:19:37.394Z,64.50
2023-05-19T08:22:05.482Z,64.53
2023-05-19T08:24:34.069Z,64.78
2023-05-19T08:27:02.176Z,63.50
2023-05-19T08:29:30.221Z,63.46
2023-05-19T08:31:58.664Z,63.14
2023-05-19T08:34:26.635Z,63.36
2023-05-19T08:36:57.849Z,63.00
2023-05-19T08:39:28.688Z,62.59
2023-05-19T08:41:56.691Z,62.34
2023-05-19T08:44:24.679Z,60.60
2023-05-19T08:46:55.204Z,61.88
2023-05-19T08:49:28.262Z,61.96
2023-05-19T08:52:06.529Z,60.22
2023-05-19T08:54:45.072Z,60.90
2023-05-19T08:57:13.645Z,60.18
2023-05-19T08:59:44.104Z,58.97
2023-05-19T09:02:14.314Z,59.32
2023-05-19T09:04:46.224Z,57.47
2023-05-19T09:07:15.786Z,58.32
2023-05-19T09:09:44.188Z,58.57
2023-05-19T09:12:13.417Z,56.37
2023-05-19T09:14:42.039Z,56.04
2023-05-19T09:17:10.751Z,54.52
2023-05-19T09:19:44.074Z,55.05
2023-05-19T09:22:12.154Z,54.62
2023-05-19T09:24:40.848Z,54.10
2023-05-19T09:27:08.949Z,53.55
2023-05-19T09:29:37.060Z,53.77
2023-05-19T09:32:06.366Z,54.21
2023-05-19T09:34:34.450Z,53.72
2023-05-19T09:37:02.533Z,54.02
2023-05-19T09:39:30.510Z,54.69
2023-05-19T09:41:58.999Z,54.91
2023-05-19T09:44:30.633Z,54.88
2023-05-19T09:47:00.045Z,54.99
2023-05-19T09:49:30.574Z,54.93
2023-05-19T09:52:00.725Z,54.49
2023-05-19T09:54:32.126Z,54.07
2023-05-19T09:57:07.115Z,54.25
2023-05-19T09:59:39.215Z,54.44
2023-05-19T10:02:16.019Z,54.67
2023-05-19T10:04:46.233Z,55.05
2023-05-19T10:07:15.942Z,55.27
2023-05-19T10:09:45.113Z,55.71
2023-05-19T10:12:13.694Z,56.09
2023-05-19T10:14:42.562Z,56.29
2023-05-19T10:17:12.404Z,56.50
2023-05-19T10:19:41.386Z,56.74
2023-05-19T10:22:09.256Z,57.19
2023-05-19T10:24:37.130Z,57.26
2023-05-19T10:27:12.544Z,57.52
2023-05-19T10:29:45.316Z,57.48
2023-05-19T10:32:21.172Z,57.56
2023-05-19T10:35:09.469Z,57.61
2023-05-19T10:37:49.342Z,57.83
2023-05-19T10:40:24.005Z,58.00
2023-05-19T10:42:58.140Z,57.78
2023-05-19T10:45:29.169Z,56.99
2023-05-19T10:47:57.330Z,56.54
2023-05-19T10:50:26.323Z,56.57
2023-05-19T10:52:56.434Z,56.89
2023-05-19T10:55:53.552Z,57.28
2023-05-19T10:58:52.273Z,57.38
2023-05-19T11:01:21.179Z,57.47
2023-05-19T11:03:54.296Z,57.59
2023-05-19T11:06:29.629Z,57.71
2023-05-19T11:09:05.276Z,57.15
2023-05-19T11:11:49.684Z,57.18
2023-05-19T11:14:23.291Z,57.14
2023-05-19T11:16:53.593Z,56.81
2023-05-19T11:19:28.604Z,56.83
2023-05-19T11:21:58.795Z,56.63
2023-05-19T11:24:50.113Z,56.84
2023-05-19T11:27:29.070Z,57.02
2023-05-19T11:29:59.616Z,56.57
2023-05-19T11:32:36.346Z,55.92
2023-05-19T11:35:05.246Z,55.93
2023-05-19T11:37:33.494Z,55.48
2023-05-19T11:40:04.890Z,55.01
2023-05-19T11:42:35.077Z,54.77
2023-05-19T11:45:04.567Z,54.64
2023-05-19T11:47:47.030Z,53.83
2023-05-19T11:50:24.723Z,54.53
2023-05-19T11:52:53.499Z,54.68
2023-05-19T11:55:22.428Z,54.33
2023-05-19T11:58:05.427Z,53.56
2023-05-19T12:00:39.843Z,53.40
2023-05-19T12:03:09.568Z,53.38
2023-05-19T12:05:45.079Z,53.47
2023-05-19T12:08:13.354Z,53.32
2023-05-19T12:10:41.539Z,52.76
2023-05-19T12:13:10.280Z,52.65
2023-05-19T12:15:39.150Z,52.58
2023-05-19T12:18:07.762Z,53.06
2023-05-19T12:20:36.598Z,52.98
2023-05-19T12:23:06.675Z,53.22
2023-05-19T12:25:35.100Z,53.79
2023-05-19T12:28:03.800Z,54.09
2023-05-19T12:30:33.097Z,54.51
2023-05-19T12:33:02.329Z,55.30
2023-05-19T12:35:33.693Z,56.20
2023-05-19T12:38:06.311Z,56.63
2023-05-19T12:40:35.998Z,57.05
2023-05-19T12:43:05.774Z,57.44
2023-05-19T12:45:35.632Z,58.15
2023-05-19T12:48:05.753Z,58.24
2023-05-19T12:50:34.765Z,59.10
2023-05-19T12:53:02.979Z,59.53
2023-05-19T12:55:31.058Z,59.96
2023-05-19T12:57:59.260Z,60.82
2023-05-19T13:00:29.270Z,60.58
2023-05-19T13:03:08.726Z,60.71
2023-05-19T13:05:43.797Z,60.89
2023-05-19T13:08:14.220Z,61.17
2023-05-19T13:10:44.074Z,61.70
2023-05-19T13:13:12.979Z,61.92
2023-05-19T13:15:43.724Z,62.14
2023-05-19T13:18:13.141Z,62.37
2023-05-19T13:20:43.663Z,62.67
2023-05-19T13:23:12.551Z,62.76
2023-05-19T13:25:42.166Z,62.81
2023-05-19T13:28:10.373Z,63.18
2023-05-19T13:30:43.892Z,63.48
2023-05-19T13:33:12.082Z,63.85
2023-05-19T13:35:40.294Z,64.21
2023-05-19T13:38:10.656Z,64.07
2023-05-19T13:40:40.281Z,64.11
2023-05-19T13:43:09.303Z,64.26
2023-05-19T13:45:37.554Z,64.23
2023-05-19T13:48:07.573Z,64.93
2023-05-19T13:50:36.248Z,64.70
2023-05-19T13:53:04.516Z,64.81
2023-05-19T13:55:33.123Z,64.79
2023-05-19T13:58:01.287Z,64.49
2023-05-19T14:00:30.966Z,64.38
2023-05-19T14:03:00.564Z,64.62
2023-05-19T14:05:29.255Z,64.45
2023-05-19T14:07:58.099Z,64.27
2023-05-19T14:10:26.588Z,63.91
2023-05-19T14:13:25.259Z,63.79
2023-05-19T14:15:42.569Z,63.64
2023-05-19T14:18:11.257Z,63.36
2023-05-19T14:20:39.345Z,63.32
2023-05-19T14:23:07.328Z,63.46
2023-05-19T14:25:35.188Z,63.55
2023-05-19T14:28:03.151Z,63.69
2023-05-19T14:30:31.131Z,63.83
2023-05-19T14:32:59.077Z,64.17
2023-05-19T14:35:27.312Z,64.43
2023-05-19T14:37:55.228Z,65.41
2023-05-19T14:40:23.227Z,65.79
2023-05-19T14:42:51.120Z,65.94
2023-05-19T14:45:19.043Z,65.97
2023-05-19T14:47:47.807Z,66.21
2023-05-19T14:50:16.330Z,66.40
2023-05-19T14:52:44.375Z,66.46
2023-05-19T14:55:12.447Z,66.64
2023-05-19T14:57:40.414Z,66.73
2023-05-19T15:00:12.237Z,67.54
2023-05-19T15:02:40.549Z,67.76
2023-05-19T15:05:09.336Z,68.36
2023-05-19T15:07:37.537Z,68.18
2023-05-19T15:10:05.914Z,68.73
2023-05-19T15:12:33.951Z,69.38
2023-05-19T15:15:02.111Z,69.12
2023-05-19T15:17:30.069Z,69.25
2023-05-19T15:19:58.183Z,69.35
2023-05-19T15:22:26.487Z,69.59
2023-05-19T15:24:54.378Z,71.27
2023-05-19T15:27:23.021Z,70.84
2023-05-19T15:29:51.360Z,72.31
2023-05-19T15:32:20.317Z,71.71
2023-05-19T15:34:48.231Z,71.92
2023-05-19T15:37:16.132Z,72.16
2023-05-19T15:39:44.180Z,72.47
2023-05-19T15:42:12.189Z,72.60
2023-05-19T15:44:40.192Z,73.23
2023-05-19T15:47:08.102Z,72.95
2023-05-19T15:49:35.998Z,73.59
2023-05-19T15:52:04.448Z,74.06
2023-05-19T15:54:32.493Z,75.50
2023-05-19T15:57:00.680Z,75.71
2023-05-19T15:59:28.582Z,75.20
2023-05-19T16:01:56.750Z,75.57
2023-05-19T16:04:24.783Z,75.87
2023-05-19T16:06:52.700Z,75.86
2023-05-19T16:09:20.609Z,76.33
2023-05-19T16:11:48.599Z,76.77
2023-05-19T16:14:16.702Z,76.20
2023-05-19T16:16:45.242Z,76.95
2023-05-19T16:19:13.173Z,77.00
2023-05-19T16:21:41.386Z,77.97
2023-05-19T16:24:09.411Z,77.30
2023-05-19T16:26:37.313Z,76.99
2023-05-19T16:29:05.209Z,77.12
2023-05-19T16:31:33.210Z,77.29
2023-05-19T16:34:01.270Z,77.35
2023-05-19T16:36:29.202Z,77.66
2023-05-19T16:38:57.346Z,77.46
2023-05-19T16:41:26.782Z,77.30
2023-05-19T16:43:54.834Z,77.57
2023-05-19T16:46:22.928Z,77.52
2023-05-19T16:48:51.123Z,78.27
2023-05-19T16:51:19.067Z,78.10
2023-05-19T16:53:47.073Z,79.98
2023-05-19T16:56:14.986Z,79.32
2023-05-19T16:58:42.854Z,80.13
2023-05-19T17:01:12.184Z,79.68
2023-05-19T17:03:40.760Z,81.06
2023-05-19T17:06:08.775Z,80.67
2023-05-19T17:08:36.779Z,80.62
2023-05-19T17:11:06.430Z,81.40
2023-05-19T17:13:36.495Z,80.69
2023-05-19T17:16:04.660Z,82.20
2023-05-19T17:18:32.900Z,81.78
2023-05-19T17:21:03.969Z,81.28
2023-05-19T17:23:32.501Z,82.52
2023-05-19T17:26:00.567Z,81.90
2023-05-19T17:28:28.685Z,82.13
2023-05-19T17:30:56.964Z,82.52
2023-05-19T17:33:25.151Z,82.77
2023-05-19T17:35:53.309Z,82.96
2023-05-19T17:38:21.264Z,83.72
2023-05-19T17:40:49.384Z,83.86
2023-05-19T17:43:17.489Z,83.68
2023-05-19T17:45:45.567Z,83.64
2023-05-19T17:48:13.690Z,83.34
2023-05-19T17:50:41.876Z,83.81
2023-05-19T17:53:10.126Z,84.29
2023-05-19T17:55:38.423Z,84.96
2023-05-19T17:58:06.785Z,85.10
2023-05-19T18:00:36.532Z,86.11
2023-05-19T18:03:06.446Z,86.45
2023-05-19T18:05:35.250Z,86.86
2023-05-19T18:08:07.916Z,87.12
2023-05-19T18:10:38.654Z,86.34
2023-05-19T18:13:08.313Z,87.65
2023-05-19T18:15:37.103Z,87.07
2023-05-19T18:18:07.770Z,87.80
2023-05-19T18:20:38.863Z,87.58
2023-05-19T18:23:07.005Z,87.92
2023-05-19T18:25:35.785Z,87.73
2023-05-19T18:28:03.888Z,87.65
2023-05-19T18:30:32.221Z,87.87
2023-05-19T18:33:03.995Z,88.25
2023-05-19T18:35:32.109Z,88.02
2023-05-19T18:38:00.164Z,89.13
2023-05-19T18:40:28.183Z,88.86
2023-05-19T18:42:56.150Z,88.26
2023-05-19T18:45:24.071Z,88.49
2023-05-19T18:47:52.053Z,88.86
2023-05-19T18:50:20.750Z,88.71
2023-05-19T18:52:48.713Z,88.92
2023-05-19T18:55:18.757Z,89.01
2023-05-19T18:57:48.067Z,89.11
2023-05-19T19:00:17.019Z,91.04
2023-05-19T19:02:45.599Z,90.44
2023-05-19T19:05:14.248Z,90.13
2023-05-19T19:07:44.730Z,90.08
2023-05-19T19:10:13.456Z,90.92
2023-05-19T19:12:41.536Z,91.00
2023-05-19T19:15:10.398Z,92.20
2023-05-19T19:17:40.133Z,91.51
2023-05-19T19:20:09.108Z,91.77
2023-05-19T19:22:37.222Z,91.88
2023-05-19T19:25:07.190Z,93.62
2023-05-19T19:27:35.796Z,92.44
2023-05-19T19:30:04.852Z,94.00
2023-05-19T19:32:33.957Z,93.13
2023-05-19T19:35:02.159Z,93.13
2023-05-19T19:37:30.723Z,93.49
2023-05-19T19:39:58.725Z,95.01
2023-05-19T19:42:26.733Z,96.12
2023-05-19T19:44:56.081Z,95.18
2023-05-19T19:47:24.109Z,95.43
2023-05-19T19:49:52.140Z,95.42
2023-05-19T19:52:20.144Z,95.10
2023-05-19T19:54:48.312Z,94.95
2023-05-19T19:57:17.495Z,95.30
2023-05-19T19:59:45.579Z,94.83
2023-05-19T20:02:14.359Z,95.47
2023-05-19T20:04:42.508Z,95.43
2023-05-19T20:07:10.971Z,95.77
2023-05-19T20:09:39.422Z,95.73
2023-05-19T20:12:07.731Z,95.13
2023-05-19T20:14:35.895Z,97.12
2023-05-19T20:17:04.291Z,97.55
2023-05-19T20:19:32.363Z,97.83
2023-05-19T20:22:00.717Z,97.83
2023-05-19T20:24:28.848Z,96.37
2023-05-19T20:26:56.992Z,96.42
2023-05-19T20:29:25.406Z,96.32
2023-05-19T20:31:55.423Z,96.62
2023-05-19T20:34:24.207Z,96.25
2023-05-19T20:36:52.245Z,95.90
2023-05-19T20:39:21.050Z,96.25
2023-05-19T20:41:49.048Z,95.99
2023-05-19T20:44:19.476Z,96.93
2023-05-19T20:46:47.582Z,97.08
2023-05-19T20:49:19.287Z,97.32
2023-05-19T20:51:47.207Z,97.78
2023-05-19T20:54:15.268Z,97.92
2023-05-19T20:56:43.150Z,97.31
2023-05-19T20:59:11.091Z,97.80
2023-05-19T21:01:39.059Z,97.48
2023-05-19T21:04:07.921Z,98.05
2023-05-19T21:06:36.716Z,97.43
2023-05-19T21:09:06.804Z,97.65
2023-05-19T21:11:35.037Z,97.44
2023-05-19T21:14:05.535Z,97.85
2023-05-19T21:16:34.299Z,98.52
2023-05-19T21:19:02.348Z,98.37
2023-05-19T21:21:31.785Z,98.45
2023-05-19T21:24:00.632Z,99.92
2023-05-19T21:26:28.753Z,98.93
2023-05-19T21:28:56.746Z,99.36
2023-05-19T21:31:24.715Z,99.29
2023-05-19T21:33:53.180Z,98.75
2023-05-19T21:36:21.491Z,99.33
2023-05-19T21:38:49.531Z,99.46
2023-05-19T21:41:17.433Z,99.63
2023-05-19T21:43:46.593Z,99.42
2023-05-19T21:46:15.386Z,99.52
2023-05-19T21:48:43.420Z,99.34
2023-05-19T21:51:11.391Z,99.71
2023-05-19T21:53:39.265Z,99.29
2023-05-19T21:56:07.365Z,99.22
2023-05-19T21:58:35.230Z,99.46
2023-05-19T22:01:03.763Z,99.40
2023-05-19T22:03:31.747Z,99.62
2023-05-19T22:05:59.815Z,99.66
2023-05-19T22:08:27.914Z,100.00
2023-05-19T22:10:55.899Z,99.94
2023-05-19T22:13:23.869Z,99.94
2023-05-19T22:15:51.864Z,99.96
2023-05-19T22:18:19.853Z,100.00
2023-05-19T22:20:47.913Z,100.00
2023-05-19T22:23:15.984Z,100.00
2023-05-19T22:25:43.955Z,100.00
2023-05-19T22:28:11.973Z,100.00
2023-05-19T22:30:42.285Z,100.00
2023-05-19T22:33:11.752Z,100.00
2023-05-19T22:35:39.744Z,100.00
2023-05-19T22:38:10.522Z,100.00
2023-05-19T22:40:39.063Z,100.00
2023-05-19T22:43:07.336Z,100.00
2023-05-19T22:45:36.600Z,100.00
2023-05-19T22:48:05.258Z,100.00
2023-05-19T22:50:33.214Z,100.00
2023-05-19T22:53:01.198Z,100.00
2023-05-19T22:55:29.106Z,100.00
2023-05-19T22:57:57.014Z,100.00
2023-05-19T23:00:24.947Z,100.00
2023-05-19T23:02:52.950Z,100.00
2023-05-19T23:05:20.974Z,100.00
2023-05-19T23:07:48.923Z,100.00
2023-05-19T23:10:16.859Z,100.00
2023-05-19T23:12:44.731Z,100.00
2023-05-19T23:15:12.686Z,100.00
2023-05-19T23:17:40.612Z,100.00
2023-05-19T23:20:09.186Z,100.00
2023-05-19T23:22:37.181Z,100.00
2023-05-19T23:25:07.922Z,100.00
2023-05-19T23:27:36.540Z,100.00
2023-05-19T23:30:05.111Z,100.00
2023-05-19T23:32:33.071Z,100.00
2023-05-19T23:35:15.805Z,100.00
2023-05-19T23:37:43.880Z,100.00
2023-05-19T23:40:12.568Z,100.00
2023-05-19T23:42:40.890Z,100.00
2023-05-19T23:45:09.196Z,100.00
2023-05-19T23:47:37.259Z,100.00
2023-05-19T23:50:05.521Z,100.00
2023-05-19T23:52:33.451Z,100.00
2023-05-19T23:55:01.401Z,100.00
2023-05-19T23:57:29.410Z,100.00
2023-05-19T23:59:57.345Z,100.00
